createdAt,value
2019-01-23T00:00:15.946Z,19.32
2019-01-23T00:02:44.415Z,17.70
2019-01-23T00:05:12.921Z,19.12
2019-01-23T00:07:41.390Z,16.50
2019-01-23T00:10:09.967Z,18.82
2019-01-23T00:12:38.422Z,18.50
2019-01-23T00:15:07.895Z,17.95
2019-01-23T00:17:36.357Z,12.73
2019-01-23T00:20:07.911Z,17.48
2019-01-23T00:22:36.369Z,14.38
2019-01-23T00:25:07.537Z,14.73
2019-01-23T00:27:35.989Z,18.02
2019-01-23T00:30:07.738Z,13.45
2019-01-23T00:32:36.200Z,16.30
2019-01-23T00:35:05.765Z,21.80
2019-01-23T00:37:34.229Z,14.93
2019-01-23T00:40:02.730Z,15.85
2019-01-23T00:42:31.270Z,14.87
2019-01-23T00:44:59.707Z,17.90
2019-01-23T00:47:28.139Z,16.73
2019-01-23T00:49:56.594Z,14.53
2019-01-23T00:52:25.027Z,17.48
2019-01-23T00:54:53.486Z,12.78
2019-01-23T00:57:21.917Z,18.85
2019-01-23T00:59:50.374Z,15.48
2019-01-23T01:02:18.808Z,14.00
2019-01-23T01:04:47.336Z,16.15
2019-01-23T01:07:15.833Z,17.30
2019-01-23T01:09:44.370Z,13.85
2019-01-23T01:12:12.804Z,14.20
2019-01-23T01:14:41.272Z,13.15
2019-01-23T01:17:09.708Z,14.98
2019-01-23T01:19:38.156Z,17.92
2019-01-23T01:22:06.592Z,16.17
2019-01-23T01:24:35.054Z,18.52
2019-01-23T01:27:03.487Z,14.03
2019-01-23T01:29:31.947Z,16.25
2019-01-23T01:32:00.526Z,14.65
2019-01-23T01:34:28.987Z,12.93
2019-01-23T01:36:57.564Z,14.23
2019-01-23T01:39:25.990Z,13.65
2019-01-23T01:41:54.448Z,16.25
2019-01-23T01:44:22.884Z,14.10
2019-01-23T01:46:51.424Z,13.53
2019-01-23T01:49:19.861Z,20.05
2019-01-23T01:51:48.399Z,18.48
2019-01-23T01:54:16.829Z,15.43
2019-01-23T01:56:45.293Z,15.55
2019-01-23T01:59:13.725Z,15.40
2019-01-23T02:01:42.178Z,15.05
2019-01-23T02:04:10.614Z,16.95
2019-01-23T02:06:39.067Z,16.32
2019-01-23T02:09:08.539Z,16.40
2019-01-23T02:11:37.001Z,18.05
2019-01-23T02:14:05.503Z,17.32
2019-01-23T02:16:33.959Z,19.52
2019-01-23T02:19:02.394Z,12.45
2019-01-23T02:21:30.852Z,16.77
2019-01-23T02:23:59.315Z,15.35
2019-01-23T02:26:27.745Z,15.68
2019-01-23T02:28:56.180Z,20.85
2019-01-23T02:31:24.634Z,14.33
2019-01-23T02:33:53.087Z,15.63
2019-01-23T02:36:21.543Z,15.03
2019-01-23T02:38:49.971Z,14.78
2019-01-23T02:41:18.435Z,13.85
2019-01-23T02:43:46.866Z,14.18
2019-01-23T02:46:15.355Z,13.15
2019-01-23T02:48:43.794Z,17.87
2019-01-23T02:51:12.228Z,16.15
2019-01-23T02:53:40.686Z,12.30
2019-01-23T02:56:09.192Z,12.00
2019-01-23T02:58:37.652Z,19.42
2019-01-23T03:01:06.092Z,16.27
2019-01-23T03:03:34.553Z,14.70
2019-01-23T03:06:03.059Z,14.35
2019-01-23T03:08:31.513Z,11.53
2019-01-23T03:10:59.941Z,13.43
2019-01-23T03:13:28.444Z,15.68
2019-01-23T03:15:56.912Z,11.85
2019-01-23T03:18:25.360Z,15.13
2019-01-23T03:20:53.861Z,16.57
2019-01-23T03:23:22.324Z,12.88
2019-01-23T03:25:50.750Z,13.48
2019-01-23T03:28:19.217Z,10.50
2019-01-23T03:30:47.650Z,15.83
2019-01-23T03:33:16.110Z,12.23
2019-01-23T03:35:44.544Z,13.22
2019-01-23T03:38:12.997Z,15.50
2019-01-23T03:40:41.423Z,16.35
2019-01-23T03:43:09.950Z,23.45
2019-01-23T03:45:38.388Z,14.47
2019-01-23T03:48:06.823Z,15.70
2019-01-23T03:50:35.281Z,15.20
2019-01-23T03:53:03.716Z,13.83
2019-01-23T03:55:32.178Z,14.07
2019-01-23T03:58:00.612Z,12.98
2019-01-23T04:00:29.068Z,18.98
2019-01-23T04:02:57.576Z,15.28
2019-01-23T04:05:26.102Z,11.53
2019-01-23T04:07:54.536Z,16.23
2019-01-23T04:10:22.996Z,10.90
2019-01-23T04:12:51.498Z,13.70
2019-01-23T04:15:19.955Z,10.30
2019-01-23T04:17:48.389Z,12.30
2019-01-23T04:20:19.083Z,11.20
2019-01-23T04:22:47.688Z,14.30
2019-01-23T04:25:16.222Z,14.07
2019-01-23T04:27:44.686Z,15.95
2019-01-23T04:30:18.852Z,17.00
2019-01-23T04:32:47.425Z,13.98
2019-01-23T04:35:15.959Z,18.45
2019-01-23T04:37:44.453Z,12.43
2019-01-23T04:40:14.151Z,11.33
2019-01-23T04:42:42.721Z,16.07
2019-01-23T04:45:16.201Z,12.98
2019-01-23T04:47:44.770Z,14.25
2019-01-23T04:50:15.371Z,16.40
2019-01-23T04:52:45.444Z,14.15
2019-01-23T04:55:13.969Z,14.35
2019-01-23T04:57:42.403Z,17.00
2019-01-23T05:00:14.245Z,14.98
2019-01-23T05:02:42.683Z,10.78
2019-01-23T05:05:11.376Z,10.45
2019-01-23T05:07:39.802Z,12.25
2019-01-23T05:10:08.398Z,11.88
2019-01-23T05:12:36.897Z,13.98
2019-01-23T05:15:07.694Z,15.90
2019-01-23T05:17:36.119Z,12.55
2019-01-23T05:20:07.745Z,12.63
2019-01-23T05:22:36.278Z,13.22
2019-01-23T05:25:05.947Z,14.58
2019-01-23T05:27:34.410Z,17.25
2019-01-23T05:30:02.907Z,14.83
2019-01-23T05:32:31.367Z,15.15
2019-01-23T05:34:59.796Z,17.85
2019-01-23T05:37:28.252Z,18.85
2019-01-23T05:39:56.698Z,17.92
2019-01-23T05:42:25.161Z,18.98
2019-01-23T05:44:53.585Z,18.57
2019-01-23T05:47:22.059Z,16.05
2019-01-23T05:49:50.482Z,15.48
2019-01-23T05:52:18.939Z,19.62
2019-01-23T05:54:47.450Z,15.53
2019-01-23T05:57:15.904Z,19.85
2019-01-23T05:59:44.333Z,14.90
2019-01-23T06:02:12.796Z,11.85
2019-01-23T06:04:41.227Z,13.45
2019-01-23T06:07:09.686Z,18.60
2019-01-23T06:09:38.114Z,10.35
2019-01-23T06:12:06.614Z,20.82
2019-01-23T06:14:35.143Z,18.05
2019-01-23T06:17:03.574Z,15.53
2019-01-23T06:19:32.097Z,11.75
2019-01-23T06:22:00.533Z,14.18
2019-01-23T06:24:29.003Z,14.10
2019-01-23T06:26:57.418Z,13.18
2019-01-23T06:29:25.878Z,18.98
2019-01-23T06:31:54.320Z,15.98
2019-01-23T06:34:22.772Z,12.95
2019-01-23T06:36:51.206Z,16.27
2019-01-23T06:39:19.658Z,15.60
2019-01-23T06:41:48.095Z,14.28
2019-01-23T06:44:16.552Z,16.57
2019-01-23T06:46:44.984Z,17.35
2019-01-23T06:49:13.433Z,14.25
2019-01-23T06:51:41.870Z,15.72
2019-01-23T06:54:10.327Z,16.05
2019-01-23T06:56:38.758Z,21.68
2019-01-23T06:59:07.210Z,15.60
2019-01-23T07:01:35.638Z,15.08
2019-01-23T07:04:04.159Z,16.20
2019-01-23T07:06:32.592Z,18.12
2019-01-23T07:09:01.050Z,18.02
2019-01-23T07:11:29.479Z,15.15
2019-01-23T07:13:57.932Z,17.05
2019-01-23T07:16:26.365Z,16.07
2019-01-23T07:18:54.818Z,19.17
2019-01-23T07:21:23.246Z,18.85
2019-01-23T07:23:51.679Z,20.75
2019-01-23T07:26:20.136Z,21.57
2019-01-23T07:28:49.336Z,25.15
2019-01-23T07:31:18.017Z,18.20
2019-01-23T07:33:46.503Z,21.37
2019-01-23T07:36:15.035Z,24.37
2019-01-23T07:38:43.468Z,20.95
2019-01-23T07:41:11.997Z,17.00
2019-01-23T07:43:40.428Z,15.90
2019-01-23T07:46:08.899Z,19.12
2019-01-23T07:48:37.329Z,13.85
2019-01-23T07:51:05.792Z,14.43
2019-01-23T07:53:34.218Z,17.12
2019-01-23T07:56:02.690Z,11.83
2019-01-23T07:58:31.117Z,15.75
2019-01-23T08:00:59.575Z,16.62
2019-01-23T08:03:28.073Z,12.10
2019-01-23T08:05:56.531Z,13.68
2019-01-23T08:08:24.968Z,10.58
2019-01-23T08:10:53.422Z,14.75
2019-01-23T08:13:21.938Z,12.37
2019-01-23T08:15:50.403Z,12.58
2019-01-23T08:18:18.838Z,17.10
2019-01-23T08:20:47.297Z,13.15
2019-01-23T08:23:15.734Z,14.15
2019-01-23T08:25:44.165Z,15.45
2019-01-23T08:28:12.707Z,16.05
2019-01-23T08:30:41.138Z,13.45
2019-01-23T08:33:09.594Z,13.95
2019-01-23T08:35:38.024Z,13.55
2019-01-23T08:38:06.491Z,21.25
2019-01-23T08:40:34.929Z,19.57
2019-01-23T08:43:03.387Z,19.92
2019-01-23T08:45:31.987Z,16.27
2019-01-23T08:48:00.455Z,16.17
2019-01-23T08:50:31.826Z,16.27
2019-01-23T08:53:00.354Z,16.73
2019-01-23T08:55:28.862Z,14.33
2019-01-23T08:57:57.321Z,14.05
2019-01-23T09:00:26.258Z,12.63
2019-01-23T09:02:54.797Z,13.20
2019-01-23T09:05:23.293Z,17.42
2019-01-23T09:07:51.755Z,16.20
2019-01-23T09:10:22.793Z,17.95
2019-01-23T09:12:51.495Z,18.10
2019-01-23T09:15:20.000Z,20.65
2019-01-23T09:17:48.533Z,17.82
2019-01-23T09:20:19.003Z,15.43
2019-01-23T09:22:47.438Z,21.37
2019-01-23T09:25:18.042Z,21.05
2019-01-23T09:27:46.643Z,22.13
2019-01-23T09:30:30.270Z,21.80
2019-01-23T09:33:23.126Z,14.80
2019-01-23T09:36:06.585Z,12.95
2019-01-23T09:38:54.759Z,16.00
2019-01-23T09:41:47.563Z,14.73
2019-01-23T09:44:27.998Z,20.00
2019-01-23T09:47:11.508Z,15.68
2019-01-23T09:49:46.077Z,15.03
2019-01-23T09:52:49.587Z,13.60
2019-01-23T09:55:18.050Z,17.52
2019-01-23T09:57:46.826Z,16.15
2019-01-23T10:00:20.721Z,16.90
2019-01-23T10:02:49.164Z,14.73
2019-01-23T10:05:17.691Z,18.98
2019-01-23T10:07:46.125Z,17.32
2019-01-23T10:10:19.587Z,15.85
2019-01-23T10:12:48.021Z,11.80
2019-01-23T10:15:22.664Z,14.43
2019-01-23T10:17:51.099Z,20.25
2019-01-23T10:20:19.630Z,20.68
2019-01-23T10:22:48.066Z,17.87
2019-01-23T10:25:16.920Z,16.10
2019-01-23T10:27:45.431Z,13.65
2019-01-23T10:30:15.442Z,14.53
2019-01-23T10:32:43.867Z,12.78
2019-01-23T10:35:15.868Z,21.17
2019-01-23T10:37:44.300Z,15.53
2019-01-23T10:40:17.602Z,19.87
2019-01-23T10:42:46.068Z,15.13
2019-01-23T10:45:17.648Z,14.47
2019-01-23T10:47:46.159Z,17.65
2019-01-23T10:50:16.517Z,17.98
2019-01-23T10:52:45.024Z,14.78
2019-01-23T10:55:13.724Z,19.50
2019-01-23T10:57:42.626Z,20.85
2019-01-23T11:00:17.082Z,18.32
2019-01-23T11:02:45.663Z,20.57
2019-01-23T11:05:17.134Z,23.27
2019-01-23T11:07:45.639Z,21.23
2019-01-23T11:10:17.279Z,21.77
2019-01-23T11:12:45.711Z,20.17
2019-01-23T11:15:14.580Z,21.90
2019-01-23T11:17:43.116Z,21.68
2019-01-23T11:20:17.253Z,17.80
2019-01-23T11:22:45.851Z,17.62
2019-01-23T11:25:15.529Z,14.10
2019-01-23T11:27:44.833Z,16.48
2019-01-23T11:30:21.971Z,19.90
2019-01-23T11:32:50.439Z,20.92
2019-01-23T11:35:18.956Z,19.15
2019-01-23T11:37:47.484Z,22.30
2019-01-23T11:40:27.214Z,18.82
2019-01-23T11:42:55.675Z,24.10
2019-01-23T11:45:24.192Z,20.35
2019-01-23T11:47:52.820Z,21.07
2019-01-23T11:50:23.086Z,21.13
2019-01-23T11:52:51.681Z,21.15
2019-01-23T11:55:20.101Z,22.35
2019-01-23T11:57:48.561Z,20.88
2019-01-23T12:00:19.673Z,21.93
2019-01-23T12:02:48.116Z,20.87
2019-01-23T12:05:18.385Z,22.43
2019-01-23T12:07:47.183Z,17.80
2019-01-23T12:10:20.825Z,20.60
2019-01-23T12:12:49.426Z,22.40
2019-01-23T12:15:19.892Z,20.37
2019-01-23T12:17:48.424Z,21.25
2019-01-23T12:20:16.991Z,19.80
2019-01-23T12:22:45.508Z,21.60
2019-01-23T12:25:14.809Z,22.17
2019-01-23T12:27:43.332Z,23.43
2019-01-23T12:30:17.784Z,19.63
2019-01-23T12:32:46.310Z,22.90
2019-01-23T12:35:14.867Z,16.90
2019-01-23T12:37:43.317Z,23.70
2019-01-23T12:40:14.088Z,21.83
2019-01-23T12:42:42.629Z,21.87
2019-01-23T12:45:14.255Z,24.17
2019-01-23T12:47:42.775Z,20.93
2019-01-23T12:50:14.307Z,24.53
2019-01-23T12:52:42.831Z,22.40
2019-01-23T12:55:11.395Z,21.57
2019-01-23T12:57:39.852Z,24.80
2019-01-23T13:00:14.568Z,19.03
2019-01-23T13:02:43.088Z,19.03
2019-01-23T13:05:13.445Z,22.67
2019-01-23T13:07:41.913Z,23.27
2019-01-23T13:10:13.344Z,20.77
2019-01-23T13:12:41.931Z,20.20
2019-01-23T13:15:18.951Z,22.63
2019-01-23T13:17:47.477Z,20.87
2019-01-23T13:20:17.740Z,17.60
2019-01-23T13:22:46.280Z,21.20
2019-01-23T13:25:17.052Z,20.82
2019-01-23T13:27:45.549Z,23.53
2019-01-23T13:30:19.370Z,22.17
2019-01-23T13:32:47.952Z,20.90
2019-01-23T13:35:19.330Z,21.70
2019-01-23T13:37:47.839Z,23.75
2019-01-23T13:40:24.964Z,19.48
2019-01-23T13:42:53.535Z,17.40
2019-01-23T13:45:22.245Z,21.40
2019-01-23T13:47:51.008Z,19.40
2019-01-23T13:50:20.134Z,20.97
2019-01-23T13:52:48.909Z,21.93
2019-01-23T13:55:21.288Z,22.17
2019-01-23T13:57:50.495Z,22.25
2019-01-23T14:00:24.897Z,22.05
2019-01-23T14:02:53.776Z,19.60
2019-01-23T14:05:22.580Z,22.98
2019-01-23T14:07:51.455Z,21.30
2019-01-23T14:10:20.488Z,22.02
2019-01-23T14:12:49.264Z,21.85
2019-01-23T14:15:24.167Z,19.23
2019-01-23T14:17:52.839Z,22.27
2019-01-23T14:20:21.864Z,20.97
2019-01-23T14:22:50.435Z,20.40
2019-01-23T14:25:19.125Z,20.60
2019-01-23T14:27:47.901Z,20.52
2019-01-23T14:30:25.779Z,21.90
2019-01-23T14:32:54.555Z,20.82
2019-01-23T14:35:23.469Z,21.97
2019-01-23T14:37:52.135Z,18.20
2019-01-23T14:40:20.841Z,22.15
2019-01-23T14:42:49.637Z,21.97
2019-01-23T14:45:19.255Z,22.50
2019-01-23T14:47:47.929Z,22.25
2019-01-23T14:50:18.633Z,20.27
2019-01-23T14:52:48.508Z,24.02
2019-01-23T14:55:17.297Z,22.73
2019-01-23T14:57:46.507Z,24.05
2019-01-23T15:00:26.995Z,23.93
2019-01-23T15:02:56.001Z,23.45
2019-01-23T15:05:24.908Z,25.20
2019-01-23T15:07:53.807Z,21.85
2019-01-23T15:10:24.987Z,21.10
2019-01-23T15:12:54.430Z,22.25
2019-01-23T15:15:24.259Z,25.37
2019-01-23T15:17:53.744Z,24.32
2019-01-23T15:20:28.071Z,25.72
2019-01-23T15:22:57.410Z,23.38
2019-01-23T15:25:26.548Z,22.95
2019-01-23T15:27:56.079Z,28.00
2019-01-23T15:30:25.572Z,23.42
2019-01-23T15:32:55.314Z,25.88
2019-01-23T15:35:24.448Z,25.60
2019-01-23T15:37:54.471Z,27.52
2019-01-23T15:40:29.423Z,25.97
2019-01-23T15:42:58.946Z,24.85
2019-01-23T15:45:28.754Z,26.62
2019-01-23T15:47:58.982Z,25.97
2019-01-23T15:50:28.914Z,27.85
2019-01-23T15:52:58.771Z,26.05
2019-01-23T15:55:28.769Z,26.25
2019-01-23T15:57:58.641Z,22.65
2019-01-23T16:00:32.526Z,26.95
2019-01-23T16:03:02.286Z,27.00
2019-01-23T16:05:32.089Z,28.85
2019-01-23T16:08:01.643Z,27.50
2019-01-23T16:10:31.444Z,28.12
2019-01-23T16:13:01.089Z,26.80
2019-01-23T16:15:30.906Z,26.50
2019-01-23T16:18:00.754Z,29.05
2019-01-23T16:20:30.254Z,27.07
2019-01-23T16:23:00.118Z,29.07
2019-01-23T16:25:29.915Z,27.40
2019-01-23T16:28:00.278Z,27.40
2019-01-23T16:30:34.779Z,30.27
2019-01-23T16:33:05.047Z,29.12
2019-01-23T16:35:38.645Z,26.60
2019-01-23T16:38:06.961Z,30.05
2019-01-23T16:40:36.876Z,30.00
2019-01-23T16:43:06.733Z,27.67
2019-01-23T16:45:36.434Z,29.70
2019-01-23T16:48:06.292Z,28.38
2019-01-23T16:50:35.992Z,29.23
2019-01-23T16:53:06.286Z,30.05
2019-01-23T16:55:35.868Z,29.98
2019-01-23T16:58:07.266Z,29.12
2019-01-23T17:00:37.018Z,27.52
2019-01-23T17:03:07.297Z,29.25
2019-01-23T17:05:37.028Z,27.87
2019-01-23T17:08:07.158Z,28.17
2019-01-23T17:10:37.322Z,27.10
2019-01-23T17:13:07.332Z,26.87
2019-01-23T17:15:37.394Z,28.15
2019-01-23T17:18:07.232Z,26.62
2019-01-23T17:20:39.404Z,27.85
2019-01-23T17:23:09.310Z,27.90
2019-01-23T17:25:39.564Z,28.45
2019-01-23T17:28:09.794Z,29.60
2019-01-23T17:30:39.645Z,28.92
2019-01-23T17:33:09.458Z,28.05
2019-01-23T17:35:39.207Z,27.00
2019-01-23T17:38:09.620Z,27.73
2019-01-23T17:40:39.581Z,28.60
2019-01-23T17:43:10.057Z,27.93
2019-01-23T17:45:40.665Z,28.15
2019-01-23T17:48:11.612Z,28.10
2019-01-23T17:50:41.861Z,28.07
2019-01-23T17:53:11.771Z,29.52
2019-01-23T17:55:42.150Z,28.10
2019-01-23T17:58:12.557Z,28.62
2019-01-23T18:00:44.574Z,27.25
2019-01-23T18:03:14.463Z,28.80
2019-01-23T18:05:50.976Z,29.77
2019-01-23T18:08:16.488Z,29.15
2019-01-23T18:10:46.552Z,27.52
2019-01-23T18:13:16.253Z,28.75
2019-01-23T18:15:46.806Z,29.60
2019-01-23T18:18:16.828Z,29.57
2019-01-23T18:20:47.086Z,30.32
2019-01-23T18:23:17.516Z,28.07
2019-01-23T18:25:47.582Z,28.60
2019-01-23T18:28:17.602Z,28.95
2019-01-23T18:31:01.594Z,29.30
2019-01-23T18:33:42.548Z,28.50
2019-01-23T18:36:20.059Z,25.23
2019-01-23T18:39:01.125Z,29.98
2019-01-23T18:41:48.064Z,21.23
2019-01-23T18:44:32.299Z,16.93
2019-01-23T18:47:10.185Z,25.97
2019-01-23T18:49:58.204Z,26.25
2019-01-23T18:52:28.556Z,18.45
2019-01-23T18:54:58.535Z,20.08
2019-01-23T18:57:33.126Z,26.00
2019-01-23T19:00:03.448Z,28.42
2019-01-23T19:02:33.814Z,16.75
2019-01-23T19:05:04.928Z,21.10
2019-01-23T19:07:35.308Z,23.47
2019-01-23T19:10:06.592Z,17.90
2019-01-23T19:12:37.024Z,18.35
2019-01-23T19:15:09.182Z,15.65
2019-01-23T19:17:39.645Z,25.43
2019-01-23T19:20:11.740Z,20.35
2019-01-23T19:22:42.478Z,17.67
2019-01-23T19:25:12.892Z,25.65
2019-01-23T19:27:43.350Z,18.57
2019-01-23T19:30:18.353Z,20.30
2019-01-23T19:32:48.757Z,26.12
2019-01-23T19:35:18.967Z,20.62
2019-01-23T19:37:49.530Z,20.62
2019-01-23T19:40:19.871Z,15.75
2019-01-23T19:42:50.531Z,21.75
2019-01-23T19:45:21.807Z,18.20
2019-01-23T19:47:52.110Z,21.15
2019-01-23T19:50:22.652Z,21.25
2019-01-23T19:52:53.229Z,25.30
2019-01-23T19:55:23.459Z,15.23
2019-01-23T19:57:54.393Z,22.62
2019-01-23T20:00:25.271Z,22.48
2019-01-23T20:02:55.893Z,27.05
2019-01-23T20:05:27.139Z,17.20
2019-01-23T20:07:58.242Z,14.63
2019-01-23T20:10:28.813Z,15.90
2019-01-23T20:12:59.225Z,14.78
2019-01-23T20:15:29.650Z,13.70
2019-01-23T20:18:00.319Z,11.73
2019-01-23T20:20:30.847Z,18.20
2019-01-23T20:23:01.287Z,14.65
2019-01-23T20:25:32.398Z,15.80
2019-01-23T20:28:03.198Z,11.12
2019-01-23T20:30:34.928Z,15.35
2019-01-23T20:33:05.280Z,13.25
2019-01-23T20:35:35.741Z,11.95
2019-01-23T20:38:06.300Z,10.65
2019-01-23T20:40:36.880Z,13.58
2019-01-23T20:43:07.394Z,17.52
2019-01-23T20:45:37.961Z,16.40
2019-01-23T20:48:08.204Z,11.30
2019-01-23T20:50:38.559Z,12.70
2019-01-23T20:53:08.672Z,12.30
2019-01-23T20:55:39.050Z,10.68
2019-01-23T20:58:09.246Z,13.45
2019-01-23T21:00:39.379Z,10.78
2019-01-23T21:03:09.624Z,13.43
2019-01-23T21:05:39.585Z,10.20
2019-01-23T21:08:10.000Z,11.70
2019-01-23T21:10:40.070Z,10.70
2019-01-23T21:13:09.973Z,13.83
2019-01-23T21:15:40.339Z,16.42
2019-01-23T21:18:10.442Z,11.97
2019-01-23T21:20:40.310Z,13.50
2019-01-23T21:23:10.313Z,12.68
2019-01-23T21:25:40.589Z,11.08
2019-01-23T21:28:10.587Z,8.28
2019-01-23T21:30:40.952Z,11.45
2019-01-23T21:33:10.962Z,11.45
2019-01-23T21:35:41.022Z,13.70
2019-01-23T21:38:10.836Z,17.05
2019-01-23T21:40:40.893Z,15.05
2019-01-23T21:43:10.732Z,9.20
2019-01-23T21:45:40.503Z,12.30
2019-01-23T21:48:10.671Z,15.38
2019-01-23T21:50:40.529Z,13.20
2019-01-23T21:53:10.434Z,14.20
2019-01-23T21:55:40.083Z,6.87
2019-01-23T21:58:09.783Z,12.68
2019-01-23T22:00:41.292Z,12.53
2019-01-23T22:03:11.282Z,12.63
2019-01-23T22:05:40.213Z,13.58
2019-01-23T22:08:09.723Z,14.00
2019-01-23T22:10:38.791Z,16.12
2019-01-23T22:13:07.559Z,11.85
2019-01-23T22:15:36.466Z,12.60
2019-01-23T22:18:05.869Z,10.23
2019-01-23T22:20:35.560Z,10.23
2019-01-23T22:23:04.439Z,8.18
2019-01-23T22:25:33.129Z,8.90
2019-01-23T22:28:01.900Z,11.65
2019-01-23T22:30:32.705Z,10.13
2019-01-23T22:33:01.585Z,11.95
2019-01-23T22:35:30.416Z,14.40
2019-01-23T22:37:59.440Z,14.23
2019-01-23T22:40:28.010Z,10.58
2019-01-23T22:42:56.610Z,13.90
2019-01-23T22:45:25.195Z,27.37
2019-01-23T22:47:53.889Z,14.33
2019-01-23T22:50:24.575Z,15.32
2019-01-23T22:52:53.570Z,10.20
2019-01-23T22:55:22.134Z,9.50
2019-01-23T22:57:50.767Z,15.88
2019-01-23T23:00:24.966Z,15.45
2019-01-23T23:02:53.694Z,15.85
2019-01-23T23:05:22.210Z,13.98
2019-01-23T23:07:50.657Z,10.70
2019-01-23T23:10:19.227Z,11.05
2019-01-23T23:12:47.684Z,11.63
2019-01-23T23:15:16.548Z,7.75
2019-01-23T23:17:45.013Z,11.95
2019-01-23T23:20:13.910Z,11.00
2019-01-23T23:22:42.370Z,10.55
2019-01-23T23:25:11.031Z,9.25
2019-01-23T23:27:39.752Z,11.55
2019-01-23T23:30:22.392Z,10.98
2019-01-23T23:32:50.920Z,11.48
2019-01-23T23:35:19.421Z,12.93
2019-01-23T23:37:47.881Z,11.05
2019-01-23T23:40:16.858Z,10.50
2019-01-23T23:42:45.360Z,12.45
2019-01-23T23:45:18.460Z,9.00
2019-01-23T23:47:46.959Z,12.65
2019-01-23T23:50:16.453Z,9.20
2019-01-23T23:52:45.025Z,13.30
2019-01-23T23:55:15.995Z,13.15
2019-01-23T23:57:44.573Z,16.23
